Airfield :
LOGIN :

Register | Disclaimer

   EN    FR    IT 

 










Legend :    VFR   Marginal VFR   IFR   Intensive IFR   Very Intensive IFR
Visi :
Ceiling :
>= 8 km
>= 3000ft
5 to 8 km
1000 to 3000 ft
1500m to 5 km
500 to 1000 ft
800 to 1500m
200 to 500 ft
< 800m
< 200 ft
Symbols :   Thunderstorms  Fog  Heavy snow  Heavy precipitations  Wind > 20 kt
SIGMETs :     Misc.  Thunderstorms  Icing  Turbulence  Mountain Waves  Volcanic Ashes







- Airport Elevation : 584 ft
- Download approach charts


LFPV - Villacoublay Vélizy

CURRENT METAR :
  • 262330Z AUTO 09003KT 060V130 CAVOK 21/16 Q1010 TEMPO 4000 SHRA BKN060CB

EXPIRED METARs :
  • 262300Z AUTO VRB03KT CAVOK 22/16 Q1010 TEMPO 4000 SHRA BKN060CB
  • 262230Z AUTO 11004KT CAVOK 22/16 Q1010 TEMPO 4000 SHRA BKN060CB
  • 262200Z AUTO 08007KT CAVOK 23/15 Q1010 TEMPO 4000 SHRA BKN060CB
  • 262130Z AUTO 04006KT CAVOK 23/15 Q1010 TEMPO 4000 SHRA BKN060CB
  • 262100Z AUTO VRB03KT CAVOK 23/15 Q1010 TEMPO 4000 SHRA BKN060CB

TAF TAF LFPV
Valid from the 26 at 21:00 until the 27 at 21:00 UTC


262000Z 2621/2721 10008KT CAVOK
TEMPO 2621/2701 VRB10G20KT 4000 SHRA BKN060CB
TEMPO 2710/2720 VRB10G25KT 4000 SHRA BKN025CB
PROB40
TEMPO 2712/2720 2500 TSRA
No reported NOTAMs for that airfield.
1 SIGMET reported for the Paris FIR (LFFF) :
 
Embedded thunderstorms
LFFF SIGMET 7 VALID 262230/270130 LFPW
LFFF PARIS FIR/UIR EMBD TS FCST WI N4930 E00545 - N4930 E00600 - N4900 E00445 - N4830 E00530 - N4800 E00515 - N4745 E00330 - N4845 E00300 TOP FL390 MOV N 10KT WKN=



MET'MAP, your aeronautical weather chart ! - Copyright ORBIFLY December 2007 - Disclaimer

ORBIFLY MET'MAP TEAM :

Programming & Development : Alexandra Zaïnal
Concept & Development : Baudouin d'Aumeries
Co-Development & Prog : Marc-Olivier Méhu
Technical & hardware support : Manuel Goepfert

Contact : metmap@orbifly.com




SOURCES & CREDITS :

   NOAA